sensor_id;sensor_type;location;lat;lon;timestamp;temperature;humidity
20459;DHT22;10388;52.314;7.938;2024-01-06T00:01:47;5.50;99.90
20459;DHT22;10388;52.314;7.938;2024-01-06T00:04:18;5.50;99.90
20459;DHT22;10388;52.314;7.938;2024-01-06T00:06:48;5.50;99.90
20459;DHT22;10388;52.314;7.938;2024-01-06T00:09:19;5.50;99.90
20459;DHT22;10388;52.314;7.938;2024-01-06T00:11:49;5.50;99.90
20459;DHT22;10388;52.314;7.938;2024-01-06T00:14:20;5.50;99.90
20459;DHT22;10388;52.314;7.938;2024-01-06T00:16:51;5.40;99.90
20459;DHT22;10388;52.314;7.938;2024-01-06T00:19:21;5.40;99.90
20459;DHT22;10388;52.314;7.938;2024-01-06T00:21:52;5.40;99.90
20459;DHT22;10388;52.314;7.938;2024-01-06T00:24:22;5.40;99.90
20459;DHT22;10388;52.314;7.938;2024-01-06T00:26:53;5.40;99.90
20459;DHT22;10388;52.314;7.938;2024-01-06T00:29:23;5.40;99.90
20459;DHT22;10388;52.314;7.938;2024-01-06T00:31:54;5.40;99.90
20459;DHT22;10388;52.314;7.938;2024-01-06T00:34:24;5.40;99.90
20459;DHT22;10388;52.314;7.938;2024-01-06T00:36:55;5.40;99.90
20459;DHT22;10388;52.314;7.938;2024-01-06T00:39:25;5.30;99.90
20459;DHT22;10388;52.314;7.938;2024-01-06T00:41:56;5.30;99.90
20459;DHT22;10388;52.314;7.938;2024-01-06T00:44:26;5.30;99.90
20459;DHT22;10388;52.314;7.938;2024-01-06T00:46:57;5.30;99.90
20459;DHT22;10388;52.314;7.938;2024-01-06T00:49:27;5.30;99.90
20459;DHT22;10388;52.314;7.938;2024-01-06T00:51:58;5.30;99.90
20459;DHT22;10388;52.314;7.938;2024-01-06T00:54:28;5.30;99.90
20459;DHT22;10388;52.314;7.938;2024-01-06T00:56:59;5.30;99.90
20459;DHT22;10388;52.314;7.938;2024-01-06T00:59:30;5.30;99.90
20459;DHT22;10388;52.314;7.938;2024-01-06T01:02:00;5.20;99.90
20459;DHT22;10388;52.314;7.938;2024-01-06T01:04:31;5.20;99.90
20459;DHT22;10388;52.314;7.938;2024-01-06T01:07:01;5.20;99.90
20459;DHT22;10388;52.314;7.938;2024-01-06T01:09:32;5.20;99.90
20459;DHT22;10388;52.314;7.938;2024-01-06T01:12:02;5.20;99.90
20459;DHT22;10388;52.314;7.938;2024-01-06T01:14:33;5.20;99.90
20459;DHT22;10388;52.314;7.938;2024-01-06T01:17:03;5.20;99.90
20459;DHT22;10388;52.314;7.938;2024-01-06T01:19:34;5.20;99.90
20459;DHT22;10388;52.314;7.938;2024-01-06T01:22:05;5.20;99.90
20459;DHT22;10388;52.314;7.938;2024-01-06T01:24:35;5.20;99.90
20459;DHT22;10388;52.314;7.938;2024-01-06T01:27:06;5.10;99.90
20459;DHT22;10388;52.314;7.938;2024-01-06T01:29:36;5.10;99.90
20459;DHT22;10388;52.314;7.938;2024-01-06T01:32:07;5.10;99.90
20459;DHT22;10388;52.314;7.938;2024-01-06T01:34:37;5.00;99.90
20459;DHT22;10388;52.314;7.938;2024-01-06T01:37:08;5.00;99.90
20459;DHT22;10388;52.314;7.938;2024-01-06T01:39:38;5.00;99.90
20459;DHT22;10388;52.314;7.938;2024-01-06T01:42:09;5.00;99.90
20459;DHT22;10388;52.314;7.938;2024-01-06T01:47:11;4.90;99.90
20459;DHT22;10388;52.314;7.938;2024-01-06T01:49:47;4.90;99.90
20459;DHT22;10388;52.314;7.938;2024-01-06T01:52:34;4.80;99.90
20459;DHT22;10388;52.314;7.938;2024-01-06T01:55:26;4.90;99.90
20459;DHT22;10388;52.314;7.938;2024-01-06T01:58:03;4.80;99.90
20459;DHT22;10388;52.314;7.938;2024-01-06T02:00:45;4.80;99.90
20459;DHT22;10388;52.314;7.938;2024-01-06T02:03:35;4.80;99.90
20459;DHT22;10388;52.314;7.938;2024-01-06T02:06:11;4.80;99.90
20459;DHT22;10388;52.314;7.938;2024-01-06T02:08:54;4.70;99.90
20459;DHT22;10388;52.314;7.938;2024-01-06T02:11:26;4.70;99.90
20459;DHT22;10388;52.314;7.938;2024-01-06T02:14:02;4.60;99.90
20459;DHT22;10388;52.314;7.938;2024-01-06T02:16:36;4.60;99.90
20459;DHT22;10388;52.314;7.938;2024-01-06T02:19:13;4.60;99.90
20459;DHT22;10388;52.314;7.938;2024-01-06T02:21:55;4.50;99.90
20459;DHT22;10388;52.314;7.938;2024-01-06T02:24:34;4.40;99.90
20459;DHT22;10388;52.314;7.938;2024-01-06T02:27:13;4.40;99.90
20459;DHT22;10388;52.314;7.938;2024-01-06T02:29:56;4.50;99.90
20459;DHT22;10388;52.314;7.938;2024-01-06T02:32:32;4.40;99.90
20459;DHT22;10388;52.314;7.938;2024-01-06T02:35:11;4.40;99.90
20459;DHT22;10388;52.314;7.938;2024-01-06T02:37:41;4.30;99.90
20459;DHT22;10388;52.314;7.938;2024-01-06T02:43:16;4.30;99.90
20459;DHT22;10388;52.314;7.938;2024-01-06T02:45:46;4.40;99.90
20459;DHT22;10388;52.314;7.938;2024-01-06T02:48:21;4.30;99.90
20459;DHT22;10388;52.314;7.938;2024-01-06T02:50:52;4.20;99.90
20459;DHT22;10388;52.314;7.938;2024-01-06T02:53:23;4.30;99.90
20459;DHT22;10388;52.314;7.938;2024-01-06T02:55:56;4.20;99.90
20459;DHT22;10388;52.314;7.938;2024-01-06T02:58:27;4.20;99.90
20459;DHT22;10388;52.314;7.938;2024-01-06T03:01:06;4.10;99.90
20459;DHT22;10388;52.314;7.938;2024-01-06T03:03:58;4.10;99.90
20459;DHT22;10388;52.314;7.938;2024-01-06T03:06:47;4.10;99.90
20459;DHT22;10388;52.314;7.938;2024-01-06T03:12:41;4.00;99.90
20459;DHT22;10388;52.314;7.938;2024-01-06T03:15:32;4.00;99.90
20459;DHT22;10388;52.314;7.938;2024-01-06T03:21:57;3.90;99.90
20459;DHT22;10388;52.314;7.938;2024-01-06T03:24:38;3.90;99.90
20459;DHT22;10388;52.314;7.938;2024-01-06T03:27:10;3.90;99.90
20459;DHT22;10388;52.314;7.938;2024-01-06T03:29:41;3.90;99.90
20459;DHT22;10388;52.314;7.938;2024-01-06T03:32:12;3.90;99.90
20459;DHT22;10388;52.314;7.938;2024-01-06T03:37:26;3.80;99.90
20459;DHT22;10388;52.314;7.938;2024-01-06T03:43:01;3.70;99.90
20459;DHT22;10388;52.314;7.938;2024-01-06T03:45:32;3.70;99.90
20459;DHT22;10388;52.314;7.938;2024-01-06T03:48:31;3.60;99.90
20459;DHT22;10388;52.314;7.938;2024-01-06T03:51:18;3.70;99.90
20459;DHT22;10388;52.314;7.938;2024-01-06T03:54:01;3.60;99.90
20459;DHT22;10388;52.314;7.938;2024-01-06T03:56:45;3.60;99.90
20459;DHT22;10388;52.314;7.938;2024-01-06T03:59:16;3.50;99.90
20459;DHT22;10388;52.314;7.938;2024-01-06T04:01:47;3.50;99.90
20459;DHT22;10388;52.314;7.938;2024-01-06T04:04:18;3.60;99.90
20459;DHT22;10388;52.314;7.938;2024-01-06T04:06:48;3.50;99.90
20459;DHT22;10388;52.314;7.938;2024-01-06T04:09:22;3.50;99.90
20459;DHT22;10388;52.314;7.938;2024-01-06T04:12:03;3.40;99.90
20459;DHT22;10388;52.314;7.938;2024-01-06T04:14:34;3.40;99.90
20459;DHT22;10388;52.314;7.938;2024-01-06T04:17:08;3.40;99.90
20459;DHT22;10388;52.314;7.938;2024-01-06T04:22:42;3.40;99.90
20459;DHT22;10388;52.314;7.938;2024-01-06T04:25:34;3.40;99.90
20459;DHT22;10388;52.314;7.938;2024-01-06T04:28:35;3.40;99.90
20459;DHT22;10388;52.314;7.938;2024-01-06T04:34:52;3.40;99.90
20459;DHT22;10388;52.314;7.938;2024-01-06T04:37:26;3.30;99.90
20459;DHT22;10388;52.314;7.938;2024-01-06T04:40:33;3.20;99.90
20459;DHT22;10388;52.314;7.938;2024-01-06T04:49:21;3.10;99.90
20459;DHT22;10388;52.314;7.938;2024-01-06T04:52:03;3.10;99.90
20459;DHT22;10388;52.314;7.938;2024-01-06T04:54:37;3.10;99.90
20459;DHT22;10388;52.314;7.938;2024-01-06T04:57:13;3.10;99.90
20459;DHT22;10388;52.314;7.938;2024-01-06T04:59:54;3.10;99.90
20459;DHT22;10388;52.314;7.938;2024-01-06T05:02:40;3.10;99.90
20459;DHT22;10388;52.314;7.938;2024-01-06T05:05:17;3.00;99.90
20459;DHT22;10388;52.314;7.938;2024-01-06T05:07:47;3.00;99.90
20459;DHT22;10388;52.314;7.938;2024-01-06T05:10:18;3.00;99.90
20459;DHT22;10388;52.314;7.938;2024-01-06T05:12:48;2.90;99.90
20459;DHT22;10388;52.314;7.938;2024-01-06T05:15:19;2.90;99.90
20459;DHT22;10388;52.314;7.938;2024-01-06T05:17:49;3.00;99.90
20459;DHT22;10388;52.314;7.938;2024-01-06T05:20:20;3.00;99.90
20459;DHT22;10388;52.314;7.938;2024-01-06T05:22:50;2.90;99.90
20459;DHT22;10388;52.314;7.938;2024-01-06T05:25:21;2.90;99.90
20459;DHT22;10388;52.314;7.938;2024-01-06T05:27:51;2.90;99.90
20459;DHT22;10388;52.314;7.938;2024-01-06T05:30:22;2.80;99.90
20459;DHT22;10388;52.314;7.938;2024-01-06T05:32:52;2.90;99.90
20459;DHT22;10388;52.314;7.938;2024-01-06T05:35:23;2.80;99.90
20459;DHT22;10388;52.314;7.938;2024-01-06T05:37:53;2.80;99.90
20459;DHT22;10388;52.314;7.938;2024-01-06T05:40:24;2.70;99.90
20459;DHT22;10388;52.314;7.938;2024-01-06T05:42:54;2.70;99.90
20459;DHT22;10388;52.314;7.938;2024-01-06T05:45:26;2.70;99.90
20459;DHT22;10388;52.314;7.938;2024-01-06T05:47:57;2.70;99.90
20459;DHT22;10388;52.314;7.938;2024-01-06T05:50:27;2.70;99.90
20459;DHT22;10388;52.314;7.938;2024-01-06T05:52:58;2.70;99.90
20459;DHT22;10388;52.314;7.938;2024-01-06T05:55:28;2.70;99.90
20459;DHT22;10388;52.314;7.938;2024-01-06T05:57:59;2.70;99.90
20459;DHT22;10388;52.314;7.938;2024-01-06T06:00:31;2.70;99.90
20459;DHT22;10388;52.314;7.938;2024-01-06T06:03:02;2.70;99.90
20459;DHT22;10388;52.314;7.938;2024-01-06T06:05:32;2.70;99.90
20459;DHT22;10388;52.314;7.938;2024-01-06T06:08:03;2.60;99.90
20459;DHT22;10388;52.314;7.938;2024-01-06T06:10:33;2.60;99.90
20459;DHT22;10388;52.314;7.938;2024-01-06T06:13:11;2.60;99.90
20459;DHT22;10388;52.314;7.938;2024-01-06T06:15:42;2.50;99.90
20459;DHT22;10388;52.314;7.938;2024-01-06T06:18:12;2.50;99.90
20459;DHT22;10388;52.314;7.938;2024-01-06T06:20:42;2.50;99.90
20459;DHT22;10388;52.314;7.938;2024-01-06T06:23:14;2.50;99.90
20459;DHT22;10388;52.314;7.938;2024-01-06T06:25:44;2.50;99.90
20459;DHT22;10388;52.314;7.938;2024-01-06T06:28:15;2.60;99.90
20459;DHT22;10388;52.314;7.938;2024-01-06T06:30:45;2.60;99.90
20459;DHT22;10388;52.314;7.938;2024-01-06T06:33:16;2.50;99.90
20459;DHT22;10388;52.314;7.938;2024-01-06T06:35:47;2.40;99.90
20459;DHT22;10388;52.314;7.938;2024-01-06T06:38:17;2.40;99.90
20459;DHT22;10388;52.314;7.938;2024-01-06T06:40:48;2.40;99.90
20459;DHT22;10388;52.314;7.938;2024-01-06T06:43:19;2.40;99.90
20459;DHT22;10388;52.314;7.938;2024-01-06T06:45:49;2.50;99.90
20459;DHT22;10388;52.314;7.938;2024-01-06T06:48:20;2.50;99.90
20459;DHT22;10388;52.314;7.938;2024-01-06T06:50:50;2.50;99.90
20459;DHT22;10388;52.314;7.938;2024-01-06T06:53:21;2.50;99.90
20459;DHT22;10388;52.314;7.938;2024-01-06T06:55:51;2.40;99.90
20459;DHT22;10388;52.314;7.938;2024-01-06T06:58:22;2.40;99.90
20459;DHT22;10388;52.314;7.938;2024-01-06T07:00:52;2.40;99.90
20459;DHT22;10388;52.314;7.938;2024-01-06T07:03:24;2.40;99.90
20459;DHT22;10388;52.314;7.938;2024-01-06T07:05:55;2.40;99.90
20459;DHT22;10388;52.314;7.938;2024-01-06T07:08:25;2.40;99.90
20459;DHT22;10388;52.314;7.938;2024-01-06T07:10:56;2.30;99.90
20459;DHT22;10388;52.314;7.938;2024-01-06T07:13:27;2.30;99.90
20459;DHT22;10388;52.314;7.938;2024-01-06T07:15:57;2.30;99.90
20459;DHT22;10388;52.314;7.938;2024-01-06T07:18:28;2.30;99.90
20459;DHT22;10388;52.314;7.938;2024-01-06T07:20:58;2.30;99.90
20459;DHT22;10388;52.314;7.938;2024-01-06T07:23:29;2.40;99.90
20459;DHT22;10388;52.314;7.938;2024-01-06T07:25:59;2.30;99.90
20459;DHT22;10388;52.314;7.938;2024-01-06T07:28:30;2.30;99.90
20459;DHT22;10388;52.314;7.938;2024-01-06T07:31:00;2.30;99.90
20459;DHT22;10388;52.314;7.938;2024-01-06T07:33:31;2.30;99.90
20459;DHT22;10388;52.314;7.938;2024-01-06T07:36:02;2.30;99.90
20459;DHT22;10388;52.314;7.938;2024-01-06T07:38:32;2.40;99.90
20459;DHT22;10388;52.314;7.938;2024-01-06T07:41:03;2.40;99.90
20459;DHT22;10388;52.314;7.938;2024-01-06T07:43:34;2.40;99.90
20459;DHT22;10388;52.314;7.938;2024-01-06T07:46:05;2.40;99.90
20459;DHT22;10388;52.314;7.938;2024-01-06T07:48:37;2.40;99.90
20459;DHT22;10388;52.314;7.938;2024-01-06T07:51:07;2.40;99.90
20459;DHT22;10388;52.314;7.938;2024-01-06T07:53:38;2.30;99.90
20459;DHT22;10388;52.314;7.938;2024-01-06T07:56:08;2.30;99.90
20459;DHT22;10388;52.314;7.938;2024-01-06T07:58:39;2.40;99.90
20459;DHT22;10388;52.314;7.938;2024-01-06T08:01:10;2.40;99.90
20459;DHT22;10388;52.314;7.938;2024-01-06T08:03:40;2.40;99.90
20459;DHT22;10388;52.314;7.938;2024-01-06T08:06:10;2.30;99.90
20459;DHT22;10388;52.314;7.938;2024-01-06T08:08:41;2.30;99.90
20459;DHT22;10388;52.314;7.938;2024-01-06T08:11:12;2.30;99.90
20459;DHT22;10388;52.314;7.938;2024-01-06T08:13:42;2.30;99.90
20459;DHT22;10388;52.314;7.938;2024-01-06T08:16:14;2.30;99.90
20459;DHT22;10388;52.314;7.938;2024-01-06T08:18:44;2.30;99.90
20459;DHT22;10388;52.314;7.938;2024-01-06T08:21:15;2.40;99.90
20459;DHT22;10388;52.314;7.938;2024-01-06T08:23:46;2.30;99.90
20459;DHT22;10388;52.314;7.938;2024-01-06T08:26:16;2.40;99.90
20459;DHT22;10388;52.314;7.938;2024-01-06T08:28:47;2.40;99.90
20459;DHT22;10388;52.314;7.938;2024-01-06T08:31:18;2.40;99.90
20459;DHT22;10388;52.314;7.938;2024-01-06T08:33:49;2.40;99.90
20459;DHT22;10388;52.314;7.938;2024-01-06T08:36:19;2.40;99.90
20459;DHT22;10388;52.314;7.938;2024-01-06T08:38:51;2.40;99.90
20459;DHT22;10388;52.314;7.938;2024-01-06T08:41:21;2.30;99.90
20459;DHT22;10388;52.314;7.938;2024-01-06T08:43:52;2.30;99.90
20459;DHT22;10388;52.314;7.938;2024-01-06T08:46:22;2.40;99.90
20459;DHT22;10388;52.314;7.938;2024-01-06T08:48:53;2.40;99.90
20459;DHT22;10388;52.314;7.938;2024-01-06T08:51:23;2.40;99.90
20459;DHT22;10388;52.314;7.938;2024-01-06T08:53:54;2.30;99.90
20459;DHT22;10388;52.314;7.938;2024-01-06T08:56:26;2.30;99.90
20459;DHT22;10388;52.314;7.938;2024-01-06T08:58:56;2.40;99.90
20459;DHT22;10388;52.314;7.938;2024-01-06T09:01:27;2.30;99.90
20459;DHT22;10388;52.314;7.938;2024-01-06T09:03:57;2.40;99.90
20459;DHT22;10388;52.314;7.938;2024-01-06T09:06:28;2.40;99.90
20459;DHT22;10388;52.314;7.938;2024-01-06T09:08:59;2.40;99.90
20459;DHT22;10388;52.314;7.938;2024-01-06T09:11:29;2.30;99.90
20459;DHT22;10388;52.314;7.938;2024-01-06T09:14:00;2.40;99.90
20459;DHT22;10388;52.314;7.938;2024-01-06T09:16:31;2.40;99.90
20459;DHT22;10388;52.314;7.938;2024-01-06T09:19:01;2.40;99.90
20459;DHT22;10388;52.314;7.938;2024-01-06T09:21:32;2.40;99.90
20459;DHT22;10388;52.314;7.938;2024-01-06T09:24:02;2.30;99.90
20459;DHT22;10388;52.314;7.938;2024-01-06T09:26:36;2.30;99.90
20459;DHT22;10388;52.314;7.938;2024-01-06T09:29:07;2.40;99.90
20459;DHT22;10388;52.314;7.938;2024-01-06T09:31:38;2.40;99.90
20459;DHT22;10388;52.314;7.938;2024-01-06T09:34:09;2.30;99.90
20459;DHT22;10388;52.314;7.938;2024-01-06T09:36:40;2.20;99.90
20459;DHT22;10388;52.314;7.938;2024-01-06T09:39:10;2.20;99.90
20459;DHT22;10388;52.314;7.938;2024-01-06T09:41:41;2.30;99.90
20459;DHT22;10388;52.314;7.938;2024-01-06T09:44:12;2.30;99.90
20459;DHT22;10388;52.314;7.938;2024-01-06T09:46:42;2.30;99.90
20459;DHT22;10388;52.314;7.938;2024-01-06T09:49:13;2.40;99.90
20459;DHT22;10388;52.314;7.938;2024-01-06T09:51:49;2.40;99.90
20459;DHT22;10388;52.314;7.938;2024-01-06T09:54:23;2.30;99.90
20459;DHT22;10388;52.314;7.938;2024-01-06T09:56:56;2.40;99.90
20459;DHT22;10388;52.314;7.938;2024-01-06T09:59:30;2.40;99.90
20459;DHT22;10388;52.314;7.938;2024-01-06T10:02:04;2.40;99.90
20459;DHT22;10388;52.314;7.938;2024-01-06T10:04:35;2.40;99.90
20459;DHT22;10388;52.314;7.938;2024-01-06T10:07:06;2.40;99.90
20459;DHT22;10388;52.314;7.938;2024-01-06T10:09:37;2.40;99.90
20459;DHT22;10388;52.314;7.938;2024-01-06T10:12:08;2.40;99.90
20459;DHT22;10388;52.314;7.938;2024-01-06T10:14:41;2.40;99.90
20459;DHT22;10388;52.314;7.938;2024-01-06T10:17:11;2.40;99.90
20459;DHT22;10388;52.314;7.938;2024-01-06T10:19:45;2.40;99.90
20459;DHT22;10388;52.314;7.938;2024-01-06T10:22:16;2.30;99.90
20459;DHT22;10388;52.314;7.938;2024-01-06T10:24:47;2.30;99.90
20459;DHT22;10388;52.314;7.938;2024-01-06T10:27:17;2.40;99.90
20459;DHT22;10388;52.314;7.938;2024-01-06T10:29:48;2.40;99.90
20459;DHT22;10388;52.314;7.938;2024-01-06T10:32:18;2.50;99.90
20459;DHT22;10388;52.314;7.938;2024-01-06T10:34:49;2.50;99.90
20459;DHT22;10388;52.314;7.938;2024-01-06T10:37:20;2.50;99.90
20459;DHT22;10388;52.314;7.938;2024-01-06T10:40:10;2.50;99.90
20459;DHT22;10388;52.314;7.938;2024-01-06T10:42:42;2.50;99.90
20459;DHT22;10388;52.314;7.938;2024-01-06T10:45:14;2.50;99.90
20459;DHT22;10388;52.314;7.938;2024-01-06T10:47:45;2.60;99.90
20459;DHT22;10388;52.314;7.938;2024-01-06T10:50:19;2.60;99.90
20459;DHT22;10388;52.314;7.938;2024-01-06T10:52:52;2.60;99.90
20459;DHT22;10388;52.314;7.938;2024-01-06T10:55:25;2.60;99.90
20459;DHT22;10388;52.314;7.938;2024-01-06T10:57:56;2.60;99.90
20459;DHT22;10388;52.314;7.938;2024-01-06T11:00:28;2.60;99.90
20459;DHT22;10388;52.314;7.938;2024-01-06T11:02:59;2.60;99.90
20459;DHT22;10388;52.314;7.938;2024-01-06T11:05:30;2.60;99.90
20459;DHT22;10388;52.314;7.938;2024-01-06T11:08:01;2.60;99.90
20459;DHT22;10388;52.314;7.938;2024-01-06T11:10:32;2.60;99.90
20459;DHT22;10388;52.314;7.938;2024-01-06T11:13:12;2.50;99.90
20459;DHT22;10388;52.314;7.938;2024-01-06T11:15:46;2.60;99.90
20459;DHT22;10388;52.314;7.938;2024-01-06T11:18:34;2.60;99.90
20459;DHT22;10388;52.314;7.938;2024-01-06T11:23:45;2.60;99.90
20459;DHT22;10388;52.314;7.938;2024-01-06T11:26:18;2.60;99.90
20459;DHT22;10388;52.314;7.938;2024-01-06T11:28:50;2.60;99.90
20459;DHT22;10388;52.314;7.938;2024-01-06T11:31:23;2.60;99.90
20459;DHT22;10388;52.314;7.938;2024-01-06T11:33:54;2.60;99.90
20459;DHT22;10388;52.314;7.938;2024-01-06T11:36:25;2.60;99.90
20459;DHT22;10388;52.314;7.938;2024-01-06T11:38:55;2.70;99.90
20459;DHT22;10388;52.314;7.938;2024-01-06T11:41:48;2.60;99.90
20459;DHT22;10388;52.314;7.938;2024-01-06T11:44:23;2.70;99.90
20459;DHT22;10388;52.314;7.938;2024-01-06T11:46:56;2.70;99.90
20459;DHT22;10388;52.314;7.938;2024-01-06T11:49:27;2.60;99.90
20459;DHT22;10388;52.314;7.938;2024-01-06T11:51:59;2.60;99.90
20459;DHT22;10388;52.314;7.938;2024-01-06T11:54:30;2.60;99.90
20459;DHT22;10388;52.314;7.938;2024-01-06T11:57:01;2.60;99.90
20459;DHT22;10388;52.314;7.938;2024-01-06T11:59:32;2.70;99.90
20459;DHT22;10388;52.314;7.938;2024-01-06T12:02:02;2.70;99.90
20459;DHT22;10388;52.314;7.938;2024-01-06T12:04:33;2.80;99.90
20459;DHT22;10388;52.314;7.938;2024-01-06T12:07:08;2.80;99.90
20459;DHT22;10388;52.314;7.938;2024-01-06T12:09:39;2.70;99.90
20459;DHT22;10388;52.314;7.938;2024-01-06T12:12:10;2.70;99.90
20459;DHT22;10388;52.314;7.938;2024-01-06T12:14:41;2.60;99.90
20459;DHT22;10388;52.314;7.938;2024-01-06T12:17:13;2.70;99.90
20459;DHT22;10388;52.314;7.938;2024-01-06T12:19:44;2.70;99.90
20459;DHT22;10388;52.314;7.938;2024-01-06T12:22:16;2.70;99.90
20459;DHT22;10388;52.314;7.938;2024-01-06T12:24:50;2.60;99.90
20459;DHT22;10388;52.314;7.938;2024-01-06T12:27:20;2.60;99.90
20459;DHT22;10388;52.314;7.938;2024-01-06T12:29:52;2.60;99.90
20459;DHT22;10388;52.314;7.938;2024-01-06T12:32:23;2.50;99.90
20459;DHT22;10388;52.314;7.938;2024-01-06T12:34:55;2.50;99.90
20459;DHT22;10388;52.314;7.938;2024-01-06T12:37:26;2.50;99.90
20459;DHT22;10388;52.314;7.938;2024-01-06T12:39:58;2.50;99.90
20459;DHT22;10388;52.314;7.938;2024-01-06T12:42:28;2.50;99.90
20459;DHT22;10388;52.314;7.938;2024-01-06T12:44:59;2.50;99.90
20459;DHT22;10388;52.314;7.938;2024-01-06T12:47:29;2.50;99.90
20459;DHT22;10388;52.314;7.938;2024-01-06T12:50:00;2.50;99.90
20459;DHT22;10388;52.314;7.938;2024-01-06T12:52:30;2.50;99.90
20459;DHT22;10388;52.314;7.938;2024-01-06T12:55:01;2.50;99.90
20459;DHT22;10388;52.314;7.938;2024-01-06T12:57:33;2.60;99.90
20459;DHT22;10388;52.314;7.938;2024-01-06T13:00:04;2.50;99.90
20459;DHT22;10388;52.314;7.938;2024-01-06T13:02:38;2.50;99.90
20459;DHT22;10388;52.314;7.938;2024-01-06T13:05:09;2.50;99.90
20459;DHT22;10388;52.314;7.938;2024-01-06T13:07:40;2.50;99.90
20459;DHT22;10388;52.314;7.938;2024-01-06T13:10:10;2.50;99.90
20459;DHT22;10388;52.314;7.938;2024-01-06T13:12:41;2.50;99.90
20459;DHT22;10388;52.314;7.938;2024-01-06T13:15:12;2.50;99.90
20459;DHT22;10388;52.314;7.938;2024-01-06T13:17:42;2.40;99.90
20459;DHT22;10388;52.314;7.938;2024-01-06T13:20:13;2.50;99.90
20459;DHT22;10388;52.314;7.938;2024-01-06T13:22:46;2.40;99.90
20459;DHT22;10388;52.314;7.938;2024-01-06T13:25:17;2.40;99.90
20459;DHT22;10388;52.314;7.938;2024-01-06T13:27:50;2.40;99.90
20459;DHT22;10388;52.314;7.938;2024-01-06T13:30:21;2.30;99.90
20459;DHT22;10388;52.314;7.938;2024-01-06T13:32:52;2.30;99.90
20459;DHT22;10388;52.314;7.938;2024-01-06T13:35:25;2.30;99.90
20459;DHT22;10388;52.314;7.938;2024-01-06T13:37:55;2.30;99.90
20459;DHT22;10388;52.314;7.938;2024-01-06T13:40:26;2.30;99.90
20459;DHT22;10388;52.314;7.938;2024-01-06T13:42:57;2.40;99.90
20459;DHT22;10388;52.314;7.938;2024-01-06T13:45:28;2.40;99.90
20459;DHT22;10388;52.314;7.938;2024-01-06T13:48:00;2.30;99.90
20459;DHT22;10388;52.314;7.938;2024-01-06T13:50:31;2.30;99.90
20459;DHT22;10388;52.314;7.938;2024-01-06T13:53:01;2.30;99.90
20459;DHT22;10388;52.314;7.938;2024-01-06T13:55:33;2.20;99.90
20459;DHT22;10388;52.314;7.938;2024-01-06T13:58:04;2.20;99.90
20459;DHT22;10388;52.314;7.938;2024-01-06T14:00:35;2.20;99.90
20459;DHT22;10388;52.314;7.938;2024-01-06T14:03:06;2.20;99.90
20459;DHT22;10388;52.314;7.938;2024-01-06T14:05:39;2.20;99.90
20459;DHT22;10388;52.314;7.938;2024-01-06T14:08:10;2.10;99.90
20459;DHT22;10388;52.314;7.938;2024-01-06T14:10:40;2.10;99.90
20459;DHT22;10388;52.314;7.938;2024-01-06T14:13:14;2.20;99.90
20459;DHT22;10388;52.314;7.938;2024-01-06T14:15:45;2.10;99.90
20459;DHT22;10388;52.314;7.938;2024-01-06T14:18:15;2.00;99.90
20459;DHT22;10388;52.314;7.938;2024-01-06T14:20:46;2.00;99.90
20459;DHT22;10388;52.314;7.938;2024-01-06T14:23:18;2.00;99.90
20459;DHT22;10388;52.314;7.938;2024-01-06T14:25:50;2.10;99.90
20459;DHT22;10388;52.314;7.938;2024-01-06T14:28:21;2.10;99.90
20459;DHT22;10388;52.314;7.938;2024-01-06T14:30:51;2.10;99.90
20459;DHT22;10388;52.314;7.938;2024-01-06T14:33:22;2.10;99.90
20459;DHT22;10388;52.314;7.938;2024-01-06T14:35:53;2.10;99.90
20459;DHT22;10388;52.314;7.938;2024-01-06T14:38:23;2.10;99.90
20459;DHT22;10388;52.314;7.938;2024-01-06T14:40:54;2.10;99.90
20459;DHT22;10388;52.314;7.938;2024-01-06T14:43:24;2.10;99.90
20459;DHT22;10388;52.314;7.938;2024-01-06T14:45:55;2.10;99.90
20459;DHT22;10388;52.314;7.938;2024-01-06T14:48:26;2.20;99.90
20459;DHT22;10388;52.314;7.938;2024-01-06T14:50:56;2.20;99.90
20459;DHT22;10388;52.314;7.938;2024-01-06T14:53:27;2.20;99.90
20459;DHT22;10388;52.314;7.938;2024-01-06T14:55:58;2.20;99.90
20459;DHT22;10388;52.314;7.938;2024-01-06T14:58:29;2.20;99.90
20459;DHT22;10388;52.314;7.938;2024-01-06T15:00:59;2.20;99.90
20459;DHT22;10388;52.314;7.938;2024-01-06T15:03:30;2.10;99.90
20459;DHT22;10388;52.314;7.938;2024-01-06T15:06:00;2.10;99.90
20459;DHT22;10388;52.314;7.938;2024-01-06T15:08:31;2.10;99.90
20459;DHT22;10388;52.314;7.938;2024-01-06T15:11:02;2.20;99.90
20459;DHT22;10388;52.314;7.938;2024-01-06T15:13:33;2.20;99.90
20459;DHT22;10388;52.314;7.938;2024-01-06T15:16:04;2.20;99.90
20459;DHT22;10388;52.314;7.938;2024-01-06T15:18:35;2.20;99.90
20459;DHT22;10388;52.314;7.938;2024-01-06T15:21:06;2.10;99.90
20459;DHT22;10388;52.314;7.938;2024-01-06T15:23:36;2.00;99.90
20459;DHT22;10388;52.314;7.938;2024-01-06T15:26:07;2.00;99.90
20459;DHT22;10388;52.314;7.938;2024-01-06T15:28:37;2.00;99.90
20459;DHT22;10388;52.314;7.938;2024-01-06T15:31:08;1.90;99.90
20459;DHT22;10388;52.314;7.938;2024-01-06T15:33:39;1.90;99.90
20459;DHT22;10388;52.314;7.938;2024-01-06T15:36:12;1.90;99.90
20459;DHT22;10388;52.314;7.938;2024-01-06T15:38:42;1.80;99.90
20459;DHT22;10388;52.314;7.938;2024-01-06T15:41:13;1.90;99.90
20459;DHT22;10388;52.314;7.938;2024-01-06T15:43:44;1.90;99.90
20459;DHT22;10388;52.314;7.938;2024-01-06T15:46:15;1.80;99.90
20459;DHT22;10388;52.314;7.938;2024-01-06T15:48:48;1.70;99.90
20459;DHT22;10388;52.314;7.938;2024-01-06T15:51:19;1.80;99.90
20459;DHT22;10388;52.314;7.938;2024-01-06T15:53:50;1.80;99.90
20459;DHT22;10388;52.314;7.938;2024-01-06T15:56:20;1.90;99.90
20459;DHT22;10388;52.314;7.938;2024-01-06T15:58:53;1.80;99.90
20459;DHT22;10388;52.314;7.938;2024-01-06T16:01:26;1.80;99.90
20459;DHT22;10388;52.314;7.938;2024-01-06T16:03:57;1.70;99.90
20459;DHT22;10388;52.314;7.938;2024-01-06T16:06:28;1.60;99.90
20459;DHT22;10388;52.314;7.938;2024-01-06T16:08:58;1.70;99.90
20459;DHT22;10388;52.314;7.938;2024-01-06T16:11:29;1.70;99.90
20459;DHT22;10388;52.314;7.938;2024-01-06T16:13:59;1.60;99.90
20459;DHT22;10388;52.314;7.938;2024-01-06T16:16:30;1.60;99.90
20459;DHT22;10388;52.314;7.938;2024-01-06T16:19:00;1.60;99.90
20459;DHT22;10388;52.314;7.938;2024-01-06T16:21:31;1.60;99.90
20459;DHT22;10388;52.314;7.938;2024-01-06T16:24:02;1.60;99.90
20459;DHT22;10388;52.314;7.938;2024-01-06T16:26:33;1.60;99.90
20459;DHT22;10388;52.314;7.938;2024-01-06T16:29:03;1.60;99.90
20459;DHT22;10388;52.314;7.938;2024-01-06T16:31:34;1.50;99.90
20459;DHT22;10388;52.314;7.938;2024-01-06T16:34:04;1.50;99.90
20459;DHT22;10388;52.314;7.938;2024-01-06T16:36:35;1.50;99.90
20459;DHT22;10388;52.314;7.938;2024-01-06T16:39:05;1.50;99.90
20459;DHT22;10388;52.314;7.938;2024-01-06T16:41:36;1.50;99.90
20459;DHT22;10388;52.314;7.938;2024-01-06T16:44:07;1.50;99.90
20459;DHT22;10388;52.314;7.938;2024-01-06T16:46:38;1.50;99.90
20459;DHT22;10388;52.314;7.938;2024-01-06T16:49:09;1.50;99.90
20459;DHT22;10388;52.314;7.938;2024-01-06T16:51:40;1.50;99.90